Terminal Aerodrome Forecast
Issued by NWS

Home | Current Version | Previous Version | Text Only | Print | Product List | Glossary On
Versions: 1 2 3 4 5 6 7 8 9 10 11 12 13 14 15
000
FTUS44 KTSA 032337
TAFFYV
TAF
KFYV 032337Z 0400/0424 02010KT P6SM VCTS SCT030 BKN040CB
      TEMPO 0400/0401 VRB11KT 5SM -TSRA BKN035CB
     FM040200 00000KT P6SM SCT035 BKN080
     FM040900 00000KT 5SM BR OVC012
      TEMPO 0409/0412 2SM BR BKN004
     FM041400 VRB03KT P6SM SCT250
     FM041800 13005KT P6SM SCT050=

USA.gov is the U.S. government's official web portal to all federal, state and local government web resources and services.